Time;durP1;ratioP1;P1;durP2;ratioP2;P2;SDS_P1;SDS_P2;PMS_P1;PMS_P2;Temp;Humidity;BMP_temperature;BMP_pressure;BME280_temperature;BME280_humidity;BME280_pressure;Samples;Min_cycle;Max_cycle;Signal;HPM_P1;HPM_P2
2022/06/23 00:00:35;;;;;;;13.53;7.50;;;24.70;99.90;;;;;;6191695;23;20074;-90
2022/06/23 00:03:05;;;;;;;12.45;8.02;;;24.70;99.90;;;;;;6192004;23;20040;-89
2022/06/23 00:05:39;;;;;;;11.80;7.82;;;24.60;99.90;;;;;;6191725;23;20031;-90
2022/06/23 00:08:11;;;;;;;14.90;8.55;;;24.60;99.90;;;;;;6191974;23;20032;-89
2022/06/23 00:10:46;;;;;;;15.00;8.20;;;24.40;99.90;;;;;;6191758;23;20327;-89
2022/06/23 00:13:41;;;;;;;15.50;8.77;;;24.40;99.90;;;;;;6191835;23;20103;-90
2022/06/23 00:16:24;;;;;;;19.58;9.93;;;24.30;99.90;;;;;;6191669;23;20005;-89
2022/06/23 00:18:50;;;;;;;20.95;10.32;;;24.30;99.90;;;;;;6191452;23;20498;-89
2022/06/23 00:21:29;;;;;;;20.25;11.18;;;24.30;99.90;;;;;;6191645;23;20009;-89
2022/06/23 00:24:00;;;;;;;22.30;11.20;;;24.30;99.90;;;;;;6191613;23;20016;-90
2022/06/23 00:26:32;;;;;;;20.33;10.80;;;24.30;99.90;;;;;;6191976;23;20087;-89
2022/06/23 00:29:15;;;;;;;16.38;10.07;;;24.30;99.90;;;;;;6191613;23;20009;-89
2022/06/23 00:32:06;;;;;;;22.05;10.80;;;24.30;99.90;;;;;;6191679;23;20385;-91
2022/06/23 00:34:39;;;;;;;18.10;10.57;;;24.30;99.90;;;;;;6173710;23;20036;-90
2022/06/23 00:37:14;;;;;;;20.73;11.73;;;24.30;99.90;;;;;;6191614;23;20012;-90
2022/06/23 00:40:04;;;;;;;20.85;10.82;;;24.30;99.90;;;;;;6191349;23;20035;-89
2022/06/23 00:42:37;;;;;;;19.00;10.60;;;24.30;99.90;;;;;;6191668;23;20058;-90
2022/06/23 00:45:10;;;;;;;19.23;10.38;;;24.30;99.90;;;;;;6191461;23;20020;-90
2022/06/23 00:47:40;;;;;;;18.92;10.70;;;24.20;99.90;;;;;;6191186;23;20019;-91
2022/06/23 00:50:22;;;;;;;20.13;11.02;;;24.20;99.90;;;;;;6191192;23;20453;-89
2022/06/23 00:53:11;;;;;;;22.63;10.07;;;24.10;99.90;;;;;;6191352;23;20011;-89
2022/06/23 00:56:07;;;;;;;20.50;11.05;;;24.10;99.90;;;;;;6191728;23;20036;-90
2022/06/23 00:58:47;;;;;;;20.55;10.82;;;24.10;99.90;;;;;;6191995;23;20008;-89
2022/06/23 01:01:59;;;;;;;24.80;11.52;;;24.10;99.90;;;;;;6196220;23;20012;-89
2022/06/23 01:04:49;;;;;;;25.25;11.27;;;24.10;99.90;;;;;;6196304;23;20020;-89
2022/06/23 01:07:53;;;;;;;22.02;11.95;;;24.10;99.90;;;;;;6196469;23;20007;-90
2022/06/23 01:10:39;;;;;;;22.90;12.50;;;24.10;99.90;;;;;;6196099;23;20032;-90
2022/06/23 01:13:28;;;;;;;23.73;11.27;;;24.20;99.90;;;;;;6196289;23;20039;-90
2022/06/23 01:16:07;;;;;;;26.08;12.35;;;24.20;99.90;;;;;;6196205;23;20004;-91
2022/06/23 01:18:41;;;;;;;30.88;13.18;;;24.30;99.90;;;;;;6196162;23;20476;-89
2022/06/23 01:21:33;;;;;;;22.80;13.10;;;24.40;99.90;;;;;;6196031;23;20034;-90
2022/06/23 01:24:07;;;;;;;22.05;12.02;;;24.50;99.90;;;;;;6195932;23;20019;-89
2022/06/23 01:26:58;;;;;;;25.92;12.82;;;24.40;99.90;;;;;;6196118;23;20004;-89
2022/06/23 01:30:01;;;;;;;22.15;11.15;;;24.40;99.90;;;;;;6196076;23;20011;-89
2022/06/23 01:32:58;;;;;;;24.35;12.40;;;24.30;99.90;;;;;;6072477;23;20038;-89
2022/06/23 01:35:39;;;;;;;31.33;12.55;;;24.20;99.90;;;;;;6072767;23;20010;-89
2022/06/23 01:38:23;;;;;;;30.98;13.48;;;24.00;99.90;;;;;;6072642;23;20011;-89
2022/06/23 01:40:59;;;;;;;29.63;13.70;;;23.90;99.90;;;;;;6072605;23;20017;-89
2022/06/23 01:43:41;;;;;;;21.88;12.38;;;23.90;99.90;;;;;;6072518;23;20014;-89
2022/06/23 01:46:16;;;;;;;25.80;12.38;;;23.80;99.90;;;;;;6072751;23;20010;-89
2022/06/23 01:48:56;;;;;;;29.02;13.13;;;23.80;99.90;;;;;;6072718;23;20310;-89
2022/06/23 01:51:37;;;;;;;32.05;15.43;;;23.80;99.90;;;;;;6072705;23;20145;-90
2022/06/23 01:54:24;;;;;;;29.90;14.63;;;23.70;99.90;;;;;;6048600;23;20010;-89
2022/06/23 01:57:09;;;;;;;29.05;14.82;;;23.60;99.90;;;;;;6071963;23;20006;-89
2022/06/23 01:59:45;;;;;;;;;;;23.60;99.90;;;;;;6048917;23;20022;-88
2022/06/23 02:02:16;;;;;;;32.95;13.98;;;23.50;99.90;;;;;;6048488;23;19905;-89
2022/06/23 02:05:11;;;;;;;25.35;14.23;;;23.50;99.90;;;;;;6072309;23;20402;-91
2022/06/23 02:07:41;;;;;;;32.55;14.85;;;23.50;99.90;;;;;;6121769;23;20004;-91
2022/06/23 02:10:30;;;;;;;26.55;13.55;;;23.40;99.90;;;;;;6195985;23;20019;-90
2022/06/23 02:13:07;;;;;;;25.40;13.40;;;23.40;99.90;;;;;;6195988;23;20008;-90
2022/06/23 02:15:59;;;;;;;22.20;12.25;;;23.40;99.90;;;;;;6195460;23;20500;-89
2022/06/23 02:19:17;;;;;;;21.27;12.65;;;23.40;99.90;;;;;;6195869;23;20008;-89
2022/06/23 02:22:06;;;;;;;23.13;12.07;;;23.40;99.90;;;;;;6072456;23;20332;-89
2022/06/23 02:24:43;;;;;;;17.58;11.40;;;23.50;99.90;;;;;;6048161;23;20531;-89
2022/06/23 02:27:19;;;;;;;21.42;12.68;;;23.40;99.90;;;;;;6048654;23;20006;-91
2022/06/23 02:29:58;;;;;;;23.05;12.02;;;23.40;99.90;;;;;;6048358;23;20044;-89
2022/06/23 02:32:46;;;;;;;21.50;11.55;;;23.50;99.90;;;;;;6048275;23;20487;-89
2022/06/23 02:35:32;;;;;;;23.55;11.40;;;23.50;99.90;;;;;;6072017;23;20093;-89
2022/06/23 02:38:37;;;;;;;17.48;10.68;;;23.60;99.90;;;;;;6071956;23;20110;-90
2022/06/23 02:41:14;;;;;;;19.80;9.05;;;23.60;99.90;;;;;;6038621;23;20015;-90
2022/06/23 02:44:04;;;;;;;18.42;8.68;;;23.50;99.90;;;;;;5992696;23;20445;-89
2022/06/23 02:47:18;;;;;;;14.32;8.52;;;23.40;99.90;;;;;;6001903;23;20496;-89
2022/06/23 02:50:06;;;;;;;11.00;7.95;;;23.30;99.90;;;;;;5984495;23;20094;-89
2022/06/23 02:53:13;;;;;;;16.65;8.38;;;23.30;99.90;;;;;;6015181;23;20424;-89
2022/06/23 02:55:53;;;;;;;21.52;8.93;;;23.20;99.90;;;;;;6014892;23;20470;-89
2022/06/23 02:58:44;;;;;;;17.83;9.30;;;23.10;99.90;;;;;;6135437;23;20439;-89
2022/06/23 03:01:29;;;;;;;17.35;10.18;;;23.00;99.90;;;;;;6101800;23;20458;-89
2022/06/23 03:04:23;;;;;;;17.30;9.80;;;22.90;99.90;;;;;;6159687;23;20017;-89
2022/06/23 03:07:05;;;;;;;16.73;10.13;;;22.90;99.90;;;;;;6159440;23;20009;-90
2022/06/23 03:09:47;;;;;;;15.23;9.45;;;22.90;99.90;;;;;;6161829;23;20051;-89
2022/06/23 03:12:27;;;;;;;16.88;9.43;;;22.90;99.90;;;;;;6161674;23;20147;-91
2022/06/23 03:15:03;;;;;;;15.85;10.00;;;22.90;99.90;;;;;;6161568;23;20071;-89
2022/06/23 03:17:48;;;;;;;16.23;9.65;;;22.90;99.90;;;;;;6188599;23;20015;-91
2022/06/23 03:20:33;;;;;;;16.13;10.13;;;22.80;99.90;;;;;;6197614;23;20014;-90
2022/06/23 03:23:13;;;;;;;13.73;9.30;;;22.80;99.90;;;;;;6197238;23;20008;-89
2022/06/23 03:26:18;;;;;;;17.27;10.38;;;22.80;99.90;;;;;;6197439;23;20096;-90
2022/06/23 03:29:05;;;;;;;15.68;8.82;;;22.80;99.90;;;;;;6197300;23;20119;-89
2022/06/23 03:32:07;;;;;;;16.27;9.75;;;22.80;99.90;;;;;;6152272;23;20015;-89
2022/06/23 03:34:39;;;;;;;17.00;10.10;;;22.70;99.90;;;;;;6197125;23;20043;-89
2022/06/23 03:37:46;;;;;;;17.33;10.20;;;22.70;99.90;;;;;;6197210;23;20012;-89
2022/06/23 03:43:31;;;;;;;16.88;8.82;;;22.70;99.90;;;;;;6222485;23;20012;-88
2022/06/23 03:46:05;;;;;;;13.77;8.88;;;22.80;99.90;;;;;;6196986;23;20012;-89
2022/06/23 03:48:41;;;;;;;13.93;8.30;;;22.80;99.90;;;;;;6197125;23;20004;-89
2022/06/23 03:51:35;;;;;;;13.27;8.13;;;22.90;99.90;;;;;;6197085;23;20030;-91
2022/06/23 03:54:20;;;;;;;13.48;8.20;;;23.00;99.90;;;;;;6197096;23;20011;-89
2022/06/23 03:57:13;;;;;;;12.10;8.68;;;23.00;99.90;;;;;;6197253;23;20015;-89
2022/06/23 04:00:04;;;;;;;17.33;8.43;;;23.00;99.90;;;;;;6196781;23;20051;-89
2022/06/23 04:02:42;;;;;;;15.65;8.77;;;23.00;99.90;;;;;;6196660;23;20042;-89
2022/06/23 04:05:33;;;;;;;11.98;8.00;;;23.10;99.90;;;;;;6196850;23;20016;-90
2022/06/23 04:08:03;;;;;;;12.77;7.88;;;23.20;99.90;;;;;;6181381;23;20000;-89
2022/06/23 04:10:33;;;;;;;15.48;8.40;;;23.50;99.90;;;;;;6197015;23;20013;-90
2022/06/23 04:13:23;;;;;;;14.13;8.25;;;23.80;99.90;;;;;;6196800;23;20074;-90
2022/06/23 04:15:53;;;;;;;13.07;8.63;;;24.00;99.90;;;;;;6196424;23;20370;-89
2022/06/23 04:18:25;;;;;;;14.43;8.52;;;24.30;99.90;;;;;;6196810;23;20008;-90
2022/06/23 04:21:11;;;;;;;10.10;7.88;;;24.50;99.90;;;;;;6196563;23;20008;-88
2022/06/23 04:23:49;;;;;;;13.02;8.45;;;24.70;99.90;;;;;;6196529;23;20012;-89
2022/06/23 04:26:39;;;;;;;18.00;8.32;;;24.80;99.90;;;;;;6196689;23;20034;-89
2022/06/23 04:29:29;;;;;;;15.23;8.30;;;24.70;99.90;;;;;;6196591;23;20005;-89
2022/06/23 04:32:13;;;;;;;11.70;8.07;;;24.60;99.90;;;;;;6196833;23;20035;-89
2022/06/23 04:34:58;;;;;;;14.63;8.25;;;24.60;99.90;;;;;;6196585;23;20008;-90
2022/06/23 04:37:36;;;;;;;;;;;24.70;99.90;;;;;;6197189;23;20016;-90
2022/06/23 04:40:32;;;;;;;11.93;8.02;;;24.70;99.90;;;;;;6196425;23;19913;-89
2022/06/23 04:43:05;;;;;;;11.82;8.80;;;24.80;99.90;;;;;;6196406;23;20004;-90
2022/06/23 04:45:47;;;;;;;15.40;8.82;;;24.90;99.90;;;;;;6196318;23;20012;-89
2022/06/23 04:48:36;;;;;;;11.65;8.60;;;25.10;99.90;;;;;;6196709;23;20008;-90
2022/06/23 04:51:38;;;;;;;15.82;9.73;;;25.00;99.90;;;;;;6196542;23;20020;-90
2022/06/23 04:54:10;;;;;;;22.05;9.98;;;25.10;99.90;;;;;;6101759;23;20060;-90
2022/06/23 04:56:47;;;;;;;18.88;10.85;;;25.20;99.90;;;;;;6078135;23;20503;-89
2022/06/23 04:59:34;;;;;;;20.05;12.15;;;25.20;99.90;;;;;;6101799;23;20029;-89
2022/06/23 05:02:18;;;;;;;12.27;10.82;;;25.20;99.90;;;;;;6078214;23;20014;-90
2022/06/23 05:04:51;;;;;;;16.03;10.90;;;25.30;99.90;;;;;;6101977;23;20456;-91
2022/06/23 05:07:36;;;;;;;19.10;10.80;;;25.60;99.90;;;;;;6101520;23;20010;-89
2022/06/23 05:10:34;;;;;;;20.65;10.73;;;25.80;99.90;;;;;;6101530;23;20093;-89
2022/06/23 05:13:18;;;;;;;15.57;10.25;;;26.00;99.90;;;;;;6077618;23;20012;-91
2022/06/23 05:15:48;;;;;;;25.40;9.95;;;26.10;99.90;;;;;;6101690;23;20017;-90
2022/06/23 05:18:23;;;;;;;11.32;9.63;;;26.30;99.90;;;;;;6078154;23;20033;-89
2022/06/23 05:20:58;;;;;;;21.33;9.93;;;26.40;99.90;;;;;;6101556;23;20017;-90
2022/06/23 05:23:35;;;;;;;21.33;9.38;;;26.50;99.90;;;;;;6101703;23;20018;-90
2022/06/23 05:26:15;;;;;;;17.67;9.48;;;26.70;99.90;;;;;;6077622;23;20101;-90
2022/06/23 05:28:44;;;;;;;19.45;8.88;;;27.00;99.90;;;;;;6101507;23;20013;-89
2022/06/23 05:31:19;;;;;;;16.30;8.52;;;27.20;99.90;;;;;;6154426;23;20008;-90
2022/06/23 05:33:51;;;;;;;29.15;7.88;;;27.70;99.90;;;;;;6166266;23;20136;-90
2022/06/23 05:36:24;;;;;;;18.85;7.57;;;28.30;99.90;;;;;;6166049;23;20008;-91
2022/06/23 05:38:55;;;;;;;16.92;7.40;;;28.90;99.90;;;;;;6166481;23;20004;-91
2022/06/23 05:41:44;;;;;;;17.08;8.25;;;29.20;99.90;;;;;;6190742;23;20013;-89
2022/06/23 05:44:16;;;;;;;8.98;8.00;;;29.30;99.90;;;;;;6165883;23;20023;-92
2022/06/23 05:46:45;;;;;;;11.93;7.55;;;29.40;99.90;;;;;;6190717;23;20077;-91
2022/06/23 05:49:36;;;;;;;9.00;8.00;;;29.40;99.90;;;;;;6165934;23;20004;-91
2022/06/23 05:52:14;;;;;;;12.02;8.75;;;29.40;99.90;;;;;;6165814;23;20005;-90
2022/06/23 05:55:21;;;;;;;14.60;8.70;;;29.50;99.90;;;;;;6166065;23;20043;-91
2022/06/23 05:57:59;;;;;;;21.73;10.27;;;29.80;99.90;;;;;;6020171;23;20098;-92
2022/06/23 06:00:58;;;;;;;14.63;9.60;;;31.00;99.90;;;;;;6089919;23;20033;-91
2022/06/23 06:08:07;;;;;;;11.77;10.27;;;32.90;99.90;;;;;;6052612;23;20026;-95
2022/06/23 06:11:04;;;;;;;13.90;10.15;;;34.10;99.90;;;;;;6054056;23;20553;-95
2022/06/23 06:13:37;;;;;;;12.85;10.35;;;34.00;99.90;;;;;;6018813;23;20015;-93
2022/06/23 06:16:05;;;;;;;15.35;11.10;;;35.00;99.90;;;;;;6020979;23;20067;-94
2022/06/23 06:18:36;;;;;;;16.85;11.18;;;35.30;99.90;;;;;;6004411;23;20030;-93
2022/06/23 06:21:06;;;;;;;12.63;11.32;;;35.40;99.90;;;;;;5994234;23;20015;-93
2022/06/23 06:24:01;;;;;;;13.90;11.55;;;35.80;99.90;;;;;;6043462;23;20015;-92
2022/06/23 06:26:39;;;;;;;15.98;11.73;;;35.80;99.90;;;;;;6028364;23;20011;-94
2022/06/23 06:29:14;;;;;;;12.48;11.18;;;36.70;99.90;;;;;;6049707;23;20015;-94
2022/06/23 06:32:04;;;;;;;12.75;11.38;;;35.90;99.90;;;;;;6060786;23;20021;-92
2022/06/23 06:34:44;;;;;;;12.90;11.57;;;36.00;99.90;;;;;;6076131;23;20006;-93
2022/06/23 06:37:17;;;;;;;14.18;11.82;;;36.00;99.90;;;;;;6066324;23;20006;-93
2022/06/23 06:39:54;;;;;;;14.38;11.82;;;36.30;99.90;;;;;;6064604;23;20010;-94
2022/06/23 06:42:30;;;;;;;15.00;12.13;;;36.50;99.90;;;;;;6072671;23;20018;-93
2022/06/23 06:45:13;;;;;;;12.80;11.45;;;36.40;99.90;;;;;;6203416;23;20016;-93
2022/06/23 06:47:41;;;;;;;12.95;11.23;;;37.00;99.90;;;;;;6150681;23;20429;-92
2022/06/23 06:50:34;;;;;;;19.65;11.63;;;37.30;99.90;;;;;;6149282;23;20029;-94
2022/06/23 06:53:07;;;;;;;12.07;11.18;;;37.50;99.90;;;;;;6167544;23;20035;-93
2022/06/23 06:55:43;;;;;;;12.30;11.07;;;37.90;99.90;;;;;;6171762;23;20012;-93
2022/06/23 06:58:47;;;;;;;12.57;11.30;;;38.20;99.90;;;;;;6173065;23;20008;-95
2022/06/23 07:01:20;;;;;;;13.75;11.30;;;38.60;99.30;;;;;;6157651;23;20084;-91
2022/06/23 07:03:52;;;;;;;12.70;11.45;;;39.20;97.30;;;;;;6207852;23;20025;-91
2022/06/23 07:06:44;;;;;;;13.48;12.00;;;39.30;96.80;;;;;;6208349;23;20001;-94
2022/06/23 07:09:17;;;;;;;12.18;11.13;;;39.80;95.70;;;;;;6214891;23;20008;-94
2022/06/23 07:12:18;;;;;;;12.07;10.95;;;40.10;95.30;;;;;;6191887;23;20056;-94
2022/06/23 07:15:13;;;;;;;16.08;11.38;;;40.30;94.60;;;;;;6062432;23;20006;-94
2022/06/23 07:17:50;;;;;;;12.60;11.50;;;40.20;94.00;;;;;;6068205;23;20025;-93
2022/06/23 07:20:28;;;;;;;15.20;12.27;;;40.00;94.20;;;;;;6065732;23;20018;-93
2022/06/23 07:23:03;;;;;;;13.32;12.05;;;40.80;93.60;;;;;;6084580;23;20033;-94
2022/06/23 07:25:35;;;;;;;13.35;12.00;;;40.10;93.40;;;;;;6078776;23;20026;-94
2022/06/23 07:28:13;;;;;;;14.57;12.00;;;40.10;93.10;;;;;;6058141;23;20027;-94
2022/06/23 07:30:55;;;;;;;12.70;11.52;;;40.30;93.10;;;;;;6083658;23;20041;-95
2022/06/23 07:33:31;;;;;;;13.95;12.27;;;40.20;93.20;;;;;;6081585;23;20014;-94
2022/06/23 07:36:16;;;;;;;18.55;13.00;;;39.90;93.60;;;;;;6079341;23;20002;-93
2022/06/23 07:39:02;;;;;;;14.30;12.88;;;40.40;93.40;;;;;;6054761;23;20010;-93
2022/06/23 07:41:43;;;;;;;14.98;13.07;;;40.80;92.80;;;;;;6077994;23;20090;-94
2022/06/23 07:44:25;;;;;;;17.50;13.13;;;40.90;92.60;;;;;;6052907;23;20019;-93
2022/06/23 07:46:52;;;;;;;17.65;13.13;;;40.70;92.60;;;;;;6076989;23;20003;-95
2022/06/23 07:49:19;;;;;;;16.48;13.25;;;40.30;92.60;;;;;;6077918;23;20007;-93
2022/06/23 07:51:48;;;;;;;20.15;12.45;;;40.50;92.50;;;;;;6164037;23;20004;-94
2022/06/23 07:54:20;;;;;;;20.42;12.48;;;40.40;92.20;;;;;;6195206;23;20018;-91
2022/06/23 07:56:49;;;;;;;35.10;14.23;;;40.70;92.10;;;;;;6195101;23;20066;-92
2022/06/23 07:59:20;;;;;;;25.35;12.90;;;40.70;92.00;;;;;;6202190;23;20099;-92
2022/06/23 08:02:04;;;;;;;22.77;12.80;;;40.50;91.20;;;;;;6200203;23;20005;-92
2022/06/23 08:04:57;;;;;;;22.70;12.13;;;40.60;90.20;;;;;;6201268;23;20023;-92
2022/06/23 08:07:26;;;;;;;21.98;12.45;;;40.80;90.20;;;;;;6191910;23;20005;-92
2022/06/23 08:10:05;;;;;;;20.55;12.48;;;40.60;90.10;;;;;;6195796;23;20059;-92
2022/06/23 08:12:55;;;;;;;20.30;12.75;;;40.40;90.30;;;;;;6202810;23;20007;-93
2022/06/23 08:18:31;;;;;;;18.70;11.10;;;40.40;90.50;;;;;;6213141;23;20481;-83
2022/06/23 08:21:25;;;;;;;26.92;11.93;;;40.30;90.80;;;;;;6217768;23;20422;-83
2022/06/23 08:23:57;;;;;;;;;;;40.50;90.70;;;;;;6218070;23;20070;-84
2022/06/23 08:26:24;;;;;;;25.45;11.95;;;40.50;90.30;;;;;;6215585;23;19911;-84
2022/06/23 08:28:57;;;;;;;26.83;12.50;;;40.60;89.60;;;;;;6217386;23;20323;-84
2022/06/23 08:31:25;;;;;;;24.55;11.85;;;40.40;89.60;;;;;;6215757;23;20028;-84
2022/06/23 08:33:52;;;;;;;26.98;11.50;;;40.50;89.70;;;;;;6217210;23;20079;-84
2022/06/23 08:36:22;;;;;;;29.05;11.43;;;40.60;89.90;;;;;;6217159;23;20029;-84
2022/06/23 08:39:25;;;;;;;25.60;11.40;;;40.50;89.30;;;;;;6215307;23;20060;-84
2022/06/23 08:42:09;;;;;;;26.63;12.07;;;40.90;88.70;;;;;;6215608;23;20063;-81
2022/06/23 08:44:49;;;;;;;27.42;11.88;;;41.10;87.00;;;;;;6215577;23;20046;-81
2022/06/23 08:47:42;;;;;;;29.70;12.82;;;41.40;86.40;;;;;;6216830;23;20017;-79
2022/06/23 08:50:19;;;;;;;23.25;12.25;;;41.30;86.20;;;;;;6216980;23;20080;-79
2022/06/23 08:53:05;;;;;;;23.77;12.07;;;41.10;86.50;;;;;;6216725;23;20430;-79
2022/06/23 08:55:50;;;;;;;32.85;12.98;;;41.00;85.80;;;;;;6217147;23;20051;-79
2022/06/23 08:58:24;;;;;;;22.13;12.13;;;41.30;84.00;;;;;;6216902;23;20004;-80
2022/06/23 09:00:58;;;;;;;50.10;13.80;;;41.40;82.50;;;;;;6245694;23;20046;-80
2022/06/23 09:03:48;;;;;;;26.45;12.10;;;41.60;81.00;;;;;;6246867;23;20012;-80
2022/06/23 09:06:26;;;;;;;27.02;12.07;;;41.30;80.40;;;;;;6247166;23;20418;-80
2022/06/23 09:09:42;;;;;;;27.45;11.93;;;40.90;80.10;;;;;;6247099;23;20108;-81
2022/06/23 09:12:30;;;;;;;22.58;12.20;;;41.00;80.40;;;;;;6211731;23;20334;-81
2022/06/23 09:15:28;;;;;;;25.58;12.50;;;41.00;80.50;;;;;;6195232;23;20564;-79
2022/06/23 09:18:19;;;;;;;24.88;12.20;;;41.20;78.90;;;;;;6195162;23;20004;-81
2022/06/23 09:21:29;;;;;;;34.75;13.35;;;41.00;79.30;;;;;;6220742;23;20008;-81
2022/06/23 09:24:44;;;;;;;26.73;12.68;;;41.20;78.00;;;;;;6095535;23;20021;-81
2022/06/23 09:27:43;;;;;;;17.45;12.43;;;41.40;76.50;;;;;;6095291;23;20042;-81
2022/06/23 09:30:29;;;;;;;29.13;12.50;;;40.90;78.20;;;;;;6084259;23;20346;-78
2022/06/23 09:33:04;;;;;;;24.95;13.57;;;41.00;78.40;;;;;;6095321;23;20361;-79
2022/06/23 09:35:58;;;;;;;21.38;12.07;;;41.10;78.40;;;;;;6095692;23;20010;-78
2022/06/23 09:38:30;;;;;;;18.60;12.27;;;40.90;74.50;;;;;;6095509;23;20087;-79
2022/06/23 09:41:05;;;;;;;26.20;12.35;;;40.80;74.40;;;;;;6071317;23;20014;-84
2022/06/23 09:43:52;;;;;;;28.80;13.20;;;40.80;73.90;;;;;;6072076;23;20043;-83
2022/06/23 09:46:48;;;;;;;17.67;12.10;;;40.80;72.30;;;;;;6047242;23;20025;-83
2022/06/23 09:49:57;;;;;;;28.38;13.10;;;40.40;71.20;;;;;;6095062;23;20013;-82
2022/06/23 09:52:54;;;;;;;24.13;12.13;;;40.10;72.40;;;;;;6071015;23;20489;-83
2022/06/23 09:55:54;;;;;;;24.15;12.40;;;40.00;73.10;;;;;;6095683;23;20014;-74
2022/06/23 09:58:48;;;;;;;21.42;12.18;;;39.90;72.00;;;;;;6094979;23;20163;-74
2022/06/23 10:01:33;;;;;;;21.73;11.82;;;39.80;72.40;;;;;;6228165;23;20016;-74
2022/06/23 10:04:22;;;;;;;28.70;12.75;;;40.00;72.70;;;;;;6246383;23;20389;-74
2022/06/23 10:07:09;;;;;;;25.58;12.40;;;39.30;76.30;;;;;;6176557;23;20042;-74
2022/06/23 10:09:57;;;;;;;23.05;12.20;;;38.70;75.70;;;;;;6246025;23;20004;-75
2022/06/23 10:12:42;;;;;;;31.15;15.13;;;38.30;76.50;;;;;;6246208;23;20008;-74
2022/06/23 10:15:11;;;;;;;27.15;17.92;;;38.10;84.60;;;;;;6246239;23;20008;-74
2022/06/23 10:17:58;;;;;;;23.40;16.58;;;37.50;91.40;;;;;;6246140;23;20004;-74
2022/06/23 10:20:45;;;;;;;17.63;15.38;;;36.90;91.60;;;;;;6246632;23;20004;-75
2022/06/23 10:23:29;;;;;;;30.95;16.45;;;37.00;92.70;;;;;;6219373;23;20096;-74
2022/06/23 10:26:20;;;;;;;22.25;16.45;;;36.70;92.90;;;;;;6246254;23;20058;-74
2022/06/23 10:29:17;;;;;;;16.38;14.82;;;36.60;93.20;;;;;;6246514;23;20469;-75
2022/06/23 10:31:52;;;;;;;18.77;14.35;;;36.20;93.00;;;;;;6245878;23;20000;-74
2022/06/23 10:34:56;;;;;;;25.27;14.90;;;35.90;93.80;;;;;;6219732;23;20008;-74
2022/06/23 10:37:33;;;;;;;;;;;36.10;93.00;;;;;;6246706;23;20019;-74
2022/06/23 10:40:12;;;;;;;19.27;13.90;;;36.10;92.70;;;;;;6219679;23;20241;-74
2022/06/23 10:42:52;;;;;;;26.05;15.25;;;36.10;92.60;;;;;;6245914;23;20091;-76
2022/06/23 10:45:49;;;;;;;21.48;14.15;;;36.60;93.20;;;;;;6219041;23;20023;-75
2022/06/23 10:48:39;;;;;;;24.90;16.05;;;36.90;91.70;;;;;;6245937;23;20381;-80
2022/06/23 10:51:28;;;;;;;17.80;14.27;;;36.30;91.60;;;;;;6219358;23;20436;-78
2022/06/23 10:54:00;;;;;;;18.95;14.15;;;36.30;90.30;;;;;;6246641;23;20012;-81
2022/06/23 10:56:43;;;;;;;21.63;13.93;;;36.30;89.60;;;;;;6247828;23;20008;-84
2022/06/23 10:59:12;;;;;;;20.73;14.65;;;36.70;89.10;;;;;;6246902;23;20012;-81
2022/06/23 11:02:02;;;;;;;19.08;14.50;;;36.60;90.00;;;;;;6247911;23;20000;-86
2022/06/23 11:05:06;;;;;;;19.65;13.40;;;37.20;88.90;;;;;;6198246;23;20024;-87
2022/06/23 11:08:11;;;;;;;16.17;13.13;;;37.10;85.20;;;;;;6196075;23;20137;-83
2022/06/23 11:10:51;;;;;;;25.48;13.57;;;36.80;86.20;;;;;;6221806;23;20020;-82
2022/06/23 11:13:36;;;;;;;18.42;13.60;;;37.10;85.60;;;;;;6247653;23;20000;-82
2022/06/23 11:16:16;;;;;;;15.88;14.10;;;37.00;85.60;;;;;;6194872;23;20095;-79
2022/06/23 11:18:59;;;;;;;16.25;13.30;;;36.60;85.90;;;;;;6219803;23;20008;-79
2022/06/23 11:21:33;;;;;;;19.42;12.43;;;36.30;86.80;;;;;;6219544;23;20058;-79
2022/06/23 11:24:07;;;;;;;22.48;14.13;;;36.30;86.40;;;;;;6246160;23;20039;-85
2022/06/23 11:26:52;;;;;;;;;;;36.30;85.90;;;;;;6221906;23;20074;-81
2022/06/23 11:29:50;;;;;;;21.65;13.75;;;36.30;86.30;;;;;;6221930;23;19979;-86
2022/06/23 11:32:31;;;;;;;15.00;13.65;;;36.30;86.20;;;;;;6222211;23;20008;-88
2022/06/23 11:35:09;;;;;;;16.45;13.68;;;36.40;85.90;;;;;;6196865;23;20437;-87
2022/06/23 11:37:49;;;;;;;18.55;12.63;;;36.70;86.40;;;;;;6197773;23;20102;-82
2022/06/23 11:40:54;;;;;;;19.73;12.68;;;36.50;84.70;;;;;;6196503;23;20008;-81
2022/06/23 11:43:36;;;;;;;16.95;12.93;;;36.70;85.80;;;;;;6196077;23;20016;-82
2022/06/23 11:46:18;;;;;;;14.75;12.25;;;37.00;83.20;;;;;;6223151;23;20456;-84
2022/06/23 11:49:05;;;;;;;13.13;11.82;;;36.70;82.80;;;;;;6247694;23;20054;-81
2022/06/23 11:52:19;;;;;;;13.90;12.40;;;37.00;82.60;;;;;;6222678;23;20079;-78
2022/06/23 11:54:53;;;;;;;21.58;13.05;;;36.60;82.60;;;;;;6165496;23;20117;-81
2022/06/23 11:57:44;;;;;;;17.15;12.93;;;36.50;85.30;;;;;;6221757;23;20028;-81
2022/06/23 12:00:15;;;;;;;13.60;12.07;;;36.20;85.10;;;;;;6216381;23;20089;-82
2022/06/23 12:03:06;;;;;;;23.23;12.15;;;35.80;86.70;;;;;;6219317;23;20318;-86
2022/06/23 12:06:06;;;;;;;13.15;11.90;;;35.70;85.70;;;;;;6191437;23;20020;-78
2022/06/23 12:08:52;;;;;;;14.77;12.95;;;36.00;84.10;;;;;;6178516;23;20078;-82
2022/06/23 12:11:30;;;;;;;14.43;12.65;;;36.40;84.00;;;;;;6190146;23;20128;-80
2022/06/23 12:14:34;;;;;;;13.95;12.40;;;36.80;83.80;;;;;;6215593;23;20067;-81
2022/06/23 12:17:32;;;;;;;15.60;12.60;;;37.00;82.00;;;;;;6216992;22;20032;-79
2022/06/23 12:20:24;;;;;;;23.60;13.20;;;36.70;82.10;;;;;;6217452;23;20260;-79
2022/06/23 12:23:46;;;;;;;;;;;;;;;;;;;;;
2022/06/23 12:27:03;;;;;;;19.08;12.80;;;37.00;82.60;;;;;;6154688;23;20117;-82
2022/06/23 12:29:59;;;;;;;19.05;12.85;;;37.00;83.30;;;;;;6129491;23;20013;-79
2022/06/23 12:32:40;;;;;;;17.95;13.63;;;36.50;84.40;;;;;;6138704;23;20467;-80
2022/06/23 12:35:57;;;;;;;17.65;13.05;;;36.80;84.30;;;;;;6098804;23;20006;-83
2022/06/23 12:38:36;;;;;;;16.58;14.75;;;37.00;83.50;;;;;;6065386;23;20441;-82
2022/06/23 12:41:12;;;;;;;23.35;14.68;;;36.90;82.90;;;;;;6040512;23;20464;-79
2022/06/23 12:43:57;;;;;;;17.00;12.82;;;36.60;83.20;;;;;;6065105;23;20453;-79
2022/06/23 12:46:40;;;;;;;16.42;13.85;;;36.50;84.40;;;;;;6065226;23;20503;-77
2022/06/23 12:49:31;;;;;;;16.77;12.27;;;36.40;85.60;;;;;;6041092;23;20354;-80
2022/06/23 12:52:00;;;;;;;13.77;12.57;;;36.20;87.60;;;;;;6017229;23;20015;-79
2022/06/23 12:54:45;;;;;;;18.50;12.43;;;35.80;88.50;;;;;;6068378;23;20125;-85
2022/06/23 12:57:44;;;;;;;15.30;12.73;;;35.70;89.00;;;;;;6020865;23;20464;-82
2022/06/23 13:00:31;;;;;;;21.55;14.75;;;35.90;90.30;;;;;;6018746;23;20062;-84
2022/06/23 13:03:50;;;;;;;13.73;12.70;;;35.90;90.40;;;;;;6088866;23;20420;-91
2022/06/23 13:06:30;;;;;;;16.10;14.32;;;35.80;90.80;;;;;;6137699;23;20021;-92
2022/06/23 13:09:04;;;;;;;22.33;12.55;;;35.40;90.70;;;;;;6111789;23;20009;-91
2022/06/23 13:11:44;;;;;;;14.40;12.82;;;35.10;90.90;;;;;;6137517;23;20109;-91
2022/06/23 13:14:22;;;;;;;14.82;12.38;;;34.80;91.60;;;;;;6141851;23;20010;-91
2022/06/23 13:17:21;;;;;;;17.33;12.85;;;34.70;92.40;;;;;;6205712;23;20012;-90
2022/06/23 13:20:28;;;;;;;14.35;13.18;;;34.80;92.40;;;;;;6204427;23;20004;-92
2022/06/23 13:23:11;;;;;;;16.67;13.43;;;34.50;92.60;;;;;;6064211;23;20049;-92
2022/06/23 13:25:49;;;;;;;15.82;13.80;;;34.50;92.90;;;;;;6084816;23;20018;-92
2022/06/23 13:28:28;;;;;;;18.05;14.20;;;34.60;93.40;;;;;;6086726;23;20443;-92
2022/06/23 13:30:59;;;;;;;18.80;15.45;;;34.80;93.50;;;;;;6110841;23;20195;-92
2022/06/23 13:33:36;;;;;;;20.02;14.48;;;35.10;93.20;;;;;;6086937;23;20033;-91
2022/06/23 13:36:24;;;;;;;15.25;13.73;;;35.00;93.70;;;;;;6086909;23;20016;-92
2022/06/23 13:39:34;;;;;;;19.60;15.98;;;34.70;93.50;;;;;;6087200;23;20009;-92
2022/06/23 13:42:04;;;;;;;15.52;13.73;;;34.80;93.30;;;;;;6067523;23;20014;-93
2022/06/23 13:44:55;;;;;;;15.38;13.75;;;35.00;93.90;;;;;;6083359;23;20130;-92
2022/06/23 13:47:33;;;;;;;16.30;13.00;;;35.00;94.00;;;;;;6077171;23;20002;-93
2022/06/23 13:50:15;;;;;;;16.13;12.35;;;34.80;93.90;;;;;;6101302;23;20013;-93
2022/06/23 13:53:07;;;;;;;13.05;11.80;;;34.50;94.30;;;;;;6076696;23;20010;-92
2022/06/23 13:56:02;;;;;;;14.15;12.32;;;34.50;94.70;;;;;;6077263;23;20010;-92
2022/06/23 13:58:49;;;;;;;13.73;12.02;;;34.50;94.50;;;;;;6076998;23;20009;-91
2022/06/23 14:01:21;;;;;;;13.48;12.15;;;34.50;93.90;;;;;;6220554;23;20385;-92
2022/06/23 14:03:56;;;;;;;20.77;12.73;;;34.40;93.80;;;;;;6220667;23;20065;-92
2022/06/23 14:06:28;;;;;;;14.73;12.65;;;34.50;94.00;;;;;;6220829;23;20012;-92